Weather observations for the past three days for
Washington
| Date | Time (cdt) | Wind (kph) | Vis. (km) | Weather | Sky Cond. | Temperature (ºC) | Relative Humidity | Wind Chill (°C) | Heat Index (°C) | Pressure | Precipitation (cm) | ||||||
|---|---|---|---|---|---|---|---|---|---|---|---|---|---|---|---|---|---|
| Air | Dwpt | 6 hour | altimeter (cm) | sea level (mb) | 1 hr | 3 hr | 6 hr | ||||||||||
| Max. | Min. | ||||||||||||||||
| 04 | 20:55 | N 20 | 0.00 | Fair | CLR | 17 | 3 | 39% | 75.21 | 0.0 | |||||||
| 04 | 20:35 | N 24 G 33 | 0.00 | Fair | CLR | 18 | 2 | 34% | 75.16 | 0.0 | |||||||
| 04 | 20:15 | N 20 G 37 | 0.00 | Fair | CLR | 19 | 3 | 35% | 75.11 | 0.0 | |||||||
| 04 | 19:55 | N 33 | 0.00 | Fair and Breezy | CLR | 21 | 3 | 31% | 75.06 | 0.0 | |||||||
| 04 | 18:55 | N 37 G 50 | 0.00 | Fair and Breezy | CLR | 24 | 8 | 36% | 25 | 74.93 | 0.0 | ||||||
| 04 | 18:35 | NW 19 G 37 | 0.00 | Fair | CLR | 24 | 12 | 47% | 25 | 74.9 | 0.0 | ||||||
| 04 | 18:15 | SW 19 G 30 | 0.00 | A Few Clouds | FEW090 | 23 | 12 | 50% | 74.88 | 0.0 | |||||||
| 04 | 17:55 | W 7 G 20 | 0.00 | Partly Cloudy | SCT090 | 21 | 13 | 60% | 74.9 | 0.0 | |||||||
| 04 | 17:35 | E 7 | 0.00 | A Few Clouds | FEW085 | 20 | 14 | 69% | 74.9 | 0.0 | |||||||
| 04 | 17:15 | Calm | 0.00 | A Few Clouds | FEW090 | 21 | 12 | 57% | 74.93 | 0.0 | |||||||
| 04 | 16:55 | SW 9 G 24 | 0.00 | A Few Clouds | FEW095 | 20 | 11 | 56% | 74.96 | 0.0 | 0.03 | ||||||
| 04 | 16:35 | W 20 G 44 | 0.00 | Light Rain | FEW095 | 21 | 12 | 57% | 74.96 | 0.0 | |||||||
| 04 | 16:15 | N 11 | 0.00 | Fair | CLR | 23 | 10 | 44% | 74.9 | 0.0 | |||||||
| 04 | 15:55 | W 22 | 0.00 | A Few Clouds | FEW090 | 26 | 8 | 32% | 26 | 74.93 | 0.0 | ||||||
| 04 | 15:35 | Vrbl 7 G 35 | 0.24 | Sky Obscured with Haze | VV000 | 26 | 8 | 32% | 26 | 74.93 | 0.0 | ||||||
| 04 | 15:15 | SW 19 G 35 | 0.24 | Sky Obscured with Haze | VV000 | 29 | 7 | 25% | 28 | 74.93 | 0.0 | ||||||
| 04 | 14:55 | W 20 G 31 | 0.00 | Fair | CLR | 27 | 7 | 28% | 26 | 74.98 | 0.0 | ||||||
| 04 | 14:35 | W 19 G 37 | 2.01 | Fair with Haze | CLR | 28 | 7 | 26% | 27 | 74.98 | 0.0 | ||||||
| 04 | 13:55 | SW 30 | 2.41 | Fair with Haze | CLR | 29 | 8 | 27% | 28 | 74.98 | 0.0 | ||||||
| 04 | 13:35 | SW 24 G 33 | 0.24 | Sky Obscured with Haze | VV000 | 28 | 8 | 28% | 27 | 75.01 | 0.0 | ||||||
| 04 | 13:15 | SW 30 | 1.21 | Sky Obscured with Haze | VV005 | 28 | 9 | 30% | 27 | 75.01 | 0.0 | ||||||
| 04 | 12:55 | SW 20 G 31 | 0.40 | Sky Obscured with Haze | VV002 | 27 | 10 | 34% | 27 | 75.01 | 0.0 | ||||||
| 04 | 12:35 | SW 24 | 0.40 | Sky Obscured with Haze | VV002 | 27 | 10 | 34% | 27 | 75.01 | 0.0 | ||||||
| 04 | 12:15 | SW 28 G 41 | 1.21 | Sky Obscured with Haze | VV005 | 26 | 10 | 37% | 26 | 75.01 | 0.0 | ||||||
| 04 | 11:35 | SW 30 | 0.24 | Sky Obscured with Haze | VV000 | 25 | 10 | 39% | 26 | 75.06 | 0.0 | ||||||
| 04 | 11:15 | SW 28 | 0.40 | Sky Obscured with Haze | VV002 | 25 | 10 | 39% | 26 | 75.06 | 0.0 | ||||||
| 04 | 10:55 | SW 26 G 35 | 0.40 | Sky Obscured with Haze | VV002 | 24 | 10 | 41% | 25 | 75.06 | 0.0 | ||||||
| 04 | 10:35 | SW 30 | 3.22 | Fair with Haze | CLR | 23 | 10 | 44% | 75.08 | 0.0 | |||||||
| 04 | 10:15 | SW 26 G 37 | 1.61 | Fair with Haze | CLR | 23 | 10 | 44% | 75.08 | 0.0 | |||||||
| 04 | 09:55 | SW 30 | 0.80 | Sky Obscured with Haze | VV005 | 22 | 9 | 44% | 75.11 | 0.0 | |||||||
| 04 | 09:35 | SW 22 | 1.61 | Fair with Haze | CLR | 21 | 10 | 50% | 75.11 | 0.0 | |||||||
| 04 | 09:15 | S 20 | 0.40 | Sky Obscured with Haze | VV002 | 20 | 9 | 49% | 75.13 | 0.0 | |||||||
| 04 | 08:55 | S 17 | 0.80 | Sky Obscured with Haze | VV005 | 18 | 8 | 52% | 75.13 | 0.0 | |||||||
| 04 | 08:35 | S 17 | 0.80 | Sky Obscured with Haze | VV005 | 17 | 8 | 56% | 75.16 | 0.0 | |||||||
| 04 | 08:15 | S 19 | 0.80 | Sky Obscured with Haze | VV005 | 16 | 8 | 59% | 75.18 | 0.0 | |||||||
| 04 | 07:55 | S 17 | 0.80 | Sky Obscured with Haze | VV005 | 15 | 7 | 59% | 75.21 | 0.0 | |||||||
| 04 | 07:35 | S 17 | 0.40 | Sky Obscured with Haze | VV002 | 13 | 7 | 67% | 75.21 | 0.0 | |||||||
| 04 | 07:15 | S 15 | 3.22 | Fair with Haze | CLR | 11 | 7 | 77% | 75.23 | 0.0 | |||||||
| 04 | 06:55 | S 15 | 2.01 | Fog/Mist | CLR | 9 | 9 | 100% | 7 | 75.23 | 0.0 | ||||||
| 04 | 06:35 | S 13 | 0.40 | Fog | VV002 | 8 | 8 | 100% | 6 | 75.23 | 0.0 | ||||||
| 04 | 06:15 | S 13 | 2.82 | Fog/Mist | CLR | 7 | 7 | 100% | 5 | 75.23 | 0.0 | ||||||
| 04 | 05:55 | S 15 | 1.21 | Fog/Mist | VV005 | 7 | 6 | 93% | 5 | 75.23 | 0.0 | ||||||
| 04 | 05:35 | S 9 | 1.21 | Sky Obscured with Haze | VV005 | 9 | 6 | 82% | 8 | 75.26 | 0.0 | ||||||
| 04 | 05:15 | SW 9 | 4.02 | Fog/Mist | CLR | 8 | 7 | 93% | 7 | 75.26 | 0.0 | ||||||
| 04 | 04:55 | S 9 | 2.82 | Fog/Mist | CLR | 7 | 7 | 100% | 5 | 75.29 | 0.0 | ||||||
| 04 | 04:35 | S 11 | 2.82 | Fog/Mist | CLR | 8 | 7 | 93% | 6 | 75.31 | 0.0 | ||||||
| 04 | 04:15 | SW 9 | 1.61 | Fog/Mist | CLR | 8 | 5 | 82% | 7 | 75.31 | 0.0 | ||||||
| 04 | 03:55 | SW 9 | 1.61 | Fair with Haze | CLR | 9 | 5 | 76% | 8 | 75.34 | 0.0 | ||||||
| 04 | 03:35 | SW 7 | 2.41 | Fair with Haze | CLR | 10 | 5 | 71% | 9 | 75.34 | 0.0 | ||||||
| 04 | 03:15 | Calm | 4.83 | Fair with Haze | CLR | 9 | 5 | 76% | 75.36 | 0.0 | |||||||
| 04 | 02:55 | SW 9 | 4.02 | Fair with Haze | CLR | 10 | 4 | 67% | 9 | 75.36 | 0.0 | ||||||
| 04 | 02:35 | SW 11 | 2.41 | Fair with Haze | CLR | 9 | 4 | 71% | 8 | 75.39 | 0.0 | ||||||
| 04 | 02:15 | SW 11 | 2.41 | Fair with Haze | CLR | 10 | 4 | 67% | 9 | 75.39 | 0.0 | ||||||
| 04 | 01:55 | SW 13 | 1.61 | Fair with Haze | CLR | 9 | 5 | 76% | 7 | 75.41 | 0.0 | ||||||
| 04 | 01:35 | SW 11 | 4.83 | Fog/Mist | CLR | 7 | 5 | 87% | 5 | 75.44 | 0.0 | ||||||
| 04 | 01:15 | SW 9 | 2.41 | Fair with Haze | CLR | 9 | 4 | 71% | 8 | 75.44 | 0.0 | ||||||
| 04 | 00:55 | W 7 | 3.22 | Fair with Haze | CLR | 11 | 4 | 62% | 75.44 | 0.0 | |||||||
| 04 | 00:35 | W 6 | 2.41 | Fair with Haze | CLR | 12 | 3 | 54% | 75.46 | 0.0 | |||||||
| 04 | 00:15 | W 7 | 2.01 | Fair with Haze | CLR | 12 | 3 | 54% | 75.49 | 0.0 | |||||||
| 03 | 23:55 | W 9 | 1.21 | Sky Obscured with Haze | VV005 | 13 | 4 | 55% | 75.49 | 0.0 | |||||||
| 03 | 23:35 | SW 13 | 1.21 | Sky Obscured with Haze | VV005 | 12 | 4 | 58% | 75.51 | 0.0 | |||||||
| 03 | 23:15 | SW 13 | 2.01 | Fair with Haze | CLR | 13 | 3 | 51% | 75.51 | 0.0 | |||||||
| 03 | 22:55 | SW 9 | 2.82 | Fair with Haze | CLR | 14 | 3 | 48% | 75.51 | 0.0 | |||||||
| 03 | 22:35 | W 9 | 2.01 | Fair with Haze | CLR | 14 | 3 | 48% | 75.54 | 0.0 | |||||||
| 03 | 22:15 | SW 13 | 0.80 | Sky Obscured with Haze | VV005 | 14 | 3 | 48% | 75.54 | 0.0 | |||||||
| 03 | 21:55 | SW 13 | 4.83 | Fair with Haze | CLR | 15 | 3 | 45% | 75.54 | 0.0 | |||||||
| 03 | 21:35 | SW 15 | 1.21 | Sky Obscured with Haze | VV005 | 16 | 3 | 42% | 75.54 | 0.0 | |||||||
| 03 | 21:15 | SW 13 | 4.02 | Fair with Haze | CLR | 16 | 3 | 42% | 75.51 | 0.0 | |||||||
| 03 | 20:55 | SW 17 | 0.80 | Sky Obscured with Haze | VV005 | 17 | 3 | 39% | 75.51 | 0.0 | |||||||
| 03 | 20:35 | SW 13 | 4.02 | Fair with Haze | CLR | 17 | 2 | 37% | 75.51 | 0.0 | |||||||
| 03 | 20:15 | SW 15 | 3.22 | Fair with Haze | CLR | 18 | 1 | 32% | 75.49 | 0.0 | |||||||
| 03 | 19:55 | W 13 | 0.40 | Sky Obscured with Haze | VV002 | 20 | 1 | 28% | 75.49 | 0.0 | |||||||
| 03 | 19:35 | W 15 | 1.21 | Sky Obscured with Haze | VV005 | 22 | 0 | 23% | 75.49 | 0.0 | |||||||
| 03 | 19:15 | W 19 G 28 | 1.61 | Fair with Haze | CLR | 22 | 0 | 23% | 75.49 | 0.0 | |||||||
| 03 | 18:55 | W 22 | 0.40 | Sky Obscured with Haze | VV002 | 23 | 0 | 22% | 75.49 | 0.0 | |||||||
| 03 | 18:35 | W 24 | 0.40 | Sky Obscured with Haze | VV002 | 23 | 2 | 25% | 75.49 | 0.0 | |||||||
| 03 | 18:15 | W 20 G 35 | 2.01 | Fair with Haze | CLR | 23 | 1 | 23% | 75.49 | 0.0 | |||||||
| 03 | 17:35 | SW 30 G 41 | 0.80 | Sky Obscured with Haze | VV005 | 24 | 4 | 27% | 25 | 75.46 | 0.0 | ||||||
| 03 | 17:15 | W 30 | 1.21 | Sky Obscured with Haze | VV005 | 23 | 5 | 31% | 75.46 | 0.0 | |||||||
| 03 | 16:55 | SW 26 G 39 | 0.80 | Sky Obscured with Haze | VV005 | 22 | 6 | 36% | 75.49 | 0.0 | |||||||
| 03 | 16:35 | SW 33 | 1.21 | Sky Obscured with Haze and Breezy | VV005 | 22 | 6 | 36% | 75.49 | 0.0 | |||||||
| 03 | 16:15 | W 30 G 46 | 0.40 | Sky Obscured with Haze | VV002 | 22 | 6 | 36% | 75.51 | 0.0 | |||||||
| 03 | 15:55 | SW 30 G 44 | 0.80 | Sky Obscured with Haze | VV005 | 21 | 6 | 38% | 75.54 | 0.0 | |||||||
| 03 | 15:35 | W 28 G 46 | 2.01 | Fair with Haze | CLR | 22 | 6 | 36% | 75.57 | 0.0 | |||||||
| 03 | 15:15 | SW 37 G 46 | 0.40 | Sky Obscured with Haze and Breezy | VV002 | 21 | 6 | 38% | 75.57 | 0.0 | |||||||
| 03 | 14:55 | SW 31 | 0.80 | Sky Obscured with Haze | VV005 | 21 | 7 | 40% | 75.57 | 0.0 | |||||||
| 03 | 14:35 | SW 37 | 2.01 | Fair with Haze and Breezy | CLR | 21 | 6 | 38% | 75.59 | 0.0 | |||||||
| 03 | 14:15 | W 28 G 37 | 0.80 | Sky Obscured with Haze | VV005 | 21 | 6 | 38% | 75.59 | 0.0 | |||||||
| 03 | 13:55 | W 26 G 39 | 1.21 | Sky Obscured with Haze | VV005 | 21 | 6 | 38% | 75.59 | 0.0 | |||||||
| 03 | 13:35 | W 30 G 43 | 0.40 | Sky Obscured with Haze | VV002 | 21 | 5 | 35% | 75.64 | 0.0 | |||||||
| 03 | 13:15 | W 28 G 46 | 0.40 | Sky Obscured with Haze | VV002 | 21 | 5 | 35% | 75.64 | 0.0 | |||||||
| 03 | 12:55 | W 41 | 0.80 | Sky Obscured with Haze and Breezy | VV005 | 20 | 5 | 38% | 75.64 | 0.0 | |||||||
| 03 | 12:35 | SW 37 G 50 | 0.80 | Sky Obscured with Haze and Breezy | VV005 | 20 | 5 | 38% | 75.64 | 0.0 | |||||||
| 03 | 12:15 | SW 30 G 52 | 0.80 | Sky Obscured with Haze | VV005 | 19 | 5 | 40% | 75.67 | 0.0 | |||||||
| 03 | 11:55 | SW 41 G 56 | 0.40 | Sky Obscured with Haze and Breezy | VV002 | 19 | 4 | 37% | 75.67 | 0.0 | |||||||
| 03 | 11:35 | SW 41 | 0.80 | Sky Obscured with Haze and Breezy | VV005 | 19 | 4 | 37% | 75.67 | 0.0 | |||||||
| 03 | 11:15 | SW 39 G 56 | 0.80 | Sky Obscured with Haze and Breezy | VV005 | 18 | 4 | 40% | 75.69 | 0.0 | |||||||
| 03 | 10:55 | SW 28 G 46 | 6.44 | Fair with Haze | CLR | 17 | 4 | 42% | 75.72 | 0.0 | |||||||
| 03 | 10:35 | SW 33 G 44 | 1.61 | Fair with Haze and Breezy | CLR | 16 | 4 | 45% | 75.74 | 0.0 | |||||||
| 03 | 10:15 | SW 37 G 52 | 0.80 | Sky Obscured with Haze and Breezy | VV005 | 15 | 3 | 45% | 75.74 | 0.0 | |||||||
| 03 | 09:55 | SW 33 G 43 | 2.41 | Fair with Haze and Breezy | CLR | 14 | 3 | 48% | 75.77 | 0.0 | |||||||
| 03 | 09:35 | SW 31 G 44 | 1.21 | Sky Obscured with Haze | VV005 | 13 | 2 | 47% | 75.79 | 0.0 | |||||||
| 03 | 09:15 | SW 24 G 46 | 1.21 | Sky Obscured with Haze | VV005 | 13 | 2 | 47% | 75.82 | 0.0 | |||||||
| 03 | 08:55 | S 35 | 1.21 | Partly Cloudy with Haze and Breezy | SCT110 | 12 | 2 | 51% | 75.82 | 0.0 | |||||||
| 03 | 08:35 | S 30 | 0.80 | Sky Obscured with Haze | VV005 | 12 | 2 | 51% | 75.84 | 0.0 | |||||||
| 03 | 08:15 | S 24 G 37 | 1.21 | Sky Obscured with Haze | VV005 | 12 | 2 | 51% | 75.84 | 0.0 | |||||||
| 03 | 07:55 | S 22 | 2.41 | Fair with Haze | CLR | 11 | 2 | 54% | 75.87 | 0.0 | |||||||
| 03 | 07:35 | S 26 | 1.21 | Mostly Cloudy with Haze | BKN100 | 10 | 2 | 58% | 7 | 75.9 | 0.0 | ||||||
| 03 | 07:15 | S 22 | 0.80 | Mostly Cloudy with Haze | SCT042 BKN110 | 10 | 1 | 54% | 7 | 75.92 | 0.0 | ||||||
| 03 | 06:55 | S 22 | 0.80 | Mostly Cloudy with Haze | SCT042 BKN090 | 9 | 2 | 62% | 6 | 75.95 | 0.0 | ||||||
| 03 | 06:35 | SW 19 | 1.61 | Mostly Cloudy with Haze | SCT065 BKN080 BKN095 | 9 | 2 | 62% | 7 | 76 | 0.0 | ||||||
| 03 | 06:15 | S 13 | 3.22 | Overcast with Haze | FEW065 BKN080 OVC095 | 9 | 2 | 62% | 7 | 76 | 0.0 | ||||||
| 03 | 05:55 | SW 20 G 30 | 2.41 | Overcast with Haze | SCT055 SCT080 OVC090 | 9 | 1 | 58% | 6 | 75.97 | 0.0 | ||||||
| 03 | 05:35 | S 26 | 4.83 | Mostly Cloudy with Haze | FEW030 SCT055 BKN070 | 8 | 2 | 66% | 5 | 75.95 | 0.0 | ||||||
| 03 | 05:15 | S 19 | 3.22 | Mostly Cloudy with Haze | FEW055 SCT065 BKN075 | 8 | 1 | 62% | 5 | 76.02 | 0.0 | ||||||
| 03 | 04:55 | SW 19 | 2.01 | Overcast with Haze | OVC090 | 8 | 1 | 62% | 5 | 76.02 | 0.0 | ||||||
| 03 | 04:35 | SW 19 | 4.02 | Mostly Cloudy with Haze | FEW080 BKN095 | 8 | 1 | 62% | 5 | 76.02 | 0.0 | ||||||
| 03 | 04:15 | S 17 | 6.44 | A Few Clouds with Haze | FEW100 FEW120 | 7 | 1 | 66% | 4 | 76.02 | 0.0 | ||||||
| 03 | 03:55 | SW 17 | 2.01 | Partly Cloudy with Haze | SCT100 | 7 | 1 | 66% | 4 | 76.05 | 0.0 | ||||||
| 03 | 03:35 | SW 17 | 2.01 | Fair with Haze | CLR | 8 | 1 | 62% | 6 | 76.05 | 0.0 | ||||||
| 03 | 03:15 | SW 19 | 4.83 | Fair with Haze | CLR | 8 | 1 | 62% | 5 | 76.07 | 0.0 | ||||||
| 03 | 02:55 | SW 19 | 3.22 | A Few Clouds with Haze | FEW120 | 8 | 1 | 62% | 5 | 76.07 | 0.0 | ||||||
| 03 | 02:35 | SW 20 | 2.82 | Mostly Cloudy with Haze | SCT100 BKN120 | 9 | 1 | 58% | 6 | 76.07 | 0.0 | ||||||
| 03 | 02:15 | SW 19 | 11.27 | Partly Cloudy | SCT100 SCT120 | 9 | 1 | 58% | 7 | 76.07 | 0.0 | ||||||
| 03 | 01:55 | S 15 | 4.83 | Fair with Haze | CLR | 7 | 1 | 66% | 5 | 76.07 | 0.0 | ||||||
| 03 | 01:35 | S 17 | 3.22 | A Few Clouds with Haze | FEW120 | 8 | 1 | 62% | 6 | 76.1 | 0.0 | ||||||
| 03 | 01:15 | SW 17 | 3.22 | A Few Clouds with Haze | FEW120 | 8 | 1 | 62% | 6 | 76.12 | 0.0 | ||||||
| 03 | 00:55 | S 15 | 1.61 | Partly Cloudy with Haze | SCT120 | 8 | 2 | 66% | 6 | 76.12 | 0.0 | ||||||
| 03 | 00:35 | S 13 | 1.61 | Fair with Haze | CLR | 6 | 1 | 71% | 4 | 76.15 | 0.0 | ||||||
| 03 | 00:15 | SW 17 | 4.83 | Fair with Haze | CLR | 7 | 1 | 66% | 4 | 76.15 | 0.0 | ||||||
| 02 | 23:55 | S 15 | 4.83 | Fair with Haze | CLR | 6 | 1 | 71% | 3 | 76.17 | 0.0 | ||||||
| 02 | 23:35 | S 15 | 2.82 | Fair with Haze | CLR | 6 | 1 | 71% | 3 | 76.17 | 0.0 | ||||||
| 02 | 23:15 | S 15 | 6.44 | Fair with Haze | CLR | 6 | 0 | 66% | 3 | 76.2 | 0.0 | ||||||
| 02 | 22:55 | S 13 | 1.61 | Fair with Haze | CLR | 6 | 0 | 66% | 4 | 76.2 | 0.0 | ||||||
| 02 | 22:35 | S 13 | 3.22 | Fair with Haze | CLR | 7 | 0 | 61% | 5 | 76.23 | 0.0 | ||||||
| 02 | 22:15 | S 11 | 8.05 | Fair with Haze | CLR | 8 | 0 | 57% | 6 | 76.23 | 0.0 | ||||||
| 02 | 21:55 | S 11 | 3.22 | Fair with Haze | CLR | 8 | -1 | 53% | 6 | 76.25 | 0.0 | ||||||
| 02 | 21:35 | S 11 | 6.44 | Fair with Haze | CLR | 9 | -1 | 50% | 8 | 76.25 | 0.0 | ||||||
| 02 | 21:15 | S 9 | 2.82 | Fair with Haze | CLR | 9 | -1 | 50% | 8 | 76.25 | 0.0 | ||||||
| 02 | 20:55 | SW 9 | 1.61 | Fair with Haze | CLR | 11 | -2 | 41% | 76.25 | 0.0 | |||||||
| 02 | 20:35 | SW 7 | 3.22 | Fair with Haze | CLR | 13 | -3 | 33% | 76.23 | 0.0 | |||||||
| 02 | 20:15 | W 7 | 0.40 | Sky Obscured with Haze | VV002 | 12 | -2 | 38% | 76.23 | 0.0 | |||||||
| 02 | 19:55 | SW 9 | 0.40 | Sky Obscured with Haze | VV002 | 13 | -2 | 36% | 76.23 | 0.0 | |||||||
| 02 | 19:35 | W 9 | 0.80 | Sky Obscured with Haze | VV005 | 14 | -3 | 31% | 76.23 | 0.0 | |||||||
| 02 | 19:15 | W 17 | 0.40 | Sky Obscured with Haze | VV002 | 15 | -4 | 27% | 76.25 | 0.0 | |||||||
| 02 | 18:55 | W 15 G 26 | 1.21 | Sky Obscured with Haze | VV005 | 15 | -3 | 29% | 76.25 | 0.0 | |||||||
| 02 | 18:35 | W 15 | 0.40 | Sky Obscured with Haze | VV002 | 15 | -3 | 29% | 76.25 | 0.0 | |||||||
| 02 | 18:15 | W 13 G 24 | 0.80 | Sky Obscured with Haze | VV005 | 15 | -3 | 29% | 76.28 | 0.0 | |||||||
| 02 | 17:55 | W 13 | 0.40 | Sky Obscured with Haze | VV002 | 15 | -3 | 29% | 76.28 | 0.0 | |||||||
| 02 | 17:35 | W 13 G 24 | 0.00 | Fair | CLR | 15 | -4 | 27% | 76.3 | 0.0 | |||||||
| 02 | 17:15 | SW 17 | 2.41 | Fair with Haze | CLR | 15 | -4 | 27% | 76.3 | 0.0 | |||||||
| 02 | 16:55 | Vrbl 9 G 30 | 0.40 | Sky Obscured with Haze | VV002 | 15 | -4 | 27% | 76.33 | 0.0 | |||||||
| 02 | 16:35 | NW 15 | 0.40 | Sky Obscured with Haze | VV002 | 15 | -4 | 27% | 76.33 | 0.0 | |||||||
| 02 | 16:15 | Vrbl 9 G 22 | 2.01 | Fair with Haze | CLR | 15 | -4 | 27% | 76.33 | 0.0 | |||||||
| 02 | 15:55 | NW 19 | 0.80 | Sky Obscured with Haze | VV005 | 15 | -4 | 27% | 76.35 | 0.0 | |||||||
| 02 | 15:35 | Calm | 8.05 | Fair with Haze | CLR | 15 | -5 | 25% | 76.38 | 0.0 | |||||||
| 02 | 15:15 | W 9 G 20 | 0.40 | Sky Obscured with Haze | VV002 | 15 | -5 | 25% | 76.4 | 0.0 | |||||||
| 02 | 14:35 | Vrbl 7 G 22 | 2.41 | Fair with Haze | CLR | 14 | -4 | 29% | 76.43 | 0.0 | |||||||
| 02 | 14:15 | Vrbl 6 | 0.40 | Sky Obscured with Haze | VV002 | 14 | -4 | 29% | 76.45 | 0.0 | |||||||
| 02 | 13:55 | Vrbl 11 | 0.80 | Sky Obscured with Haze | VV005 | 14 | -4 | 29% | 76.45 | 0.0 | |||||||
| 02 | 13:35 | Vrbl 9 G 20 | 0.40 | Sky Obscured with Haze | VV002 | 14 | -5 | 27% | 76.48 | 0.0 | |||||||
| 02 | 13:15 | Vrbl 9 G 19 | 0.24 | Sky Obscured with Haze | VV000 | 13 | -5 | 28% | 76.48 | 0.0 | |||||||
| 02 | 12:55 | Vrbl 9 | 0.40 | Mostly Cloudy with Haze | BKN075 | 12 | -6 | 28% | 76.5 | 0.0 | |||||||
| 02 | 12:35 | Vrbl 11 | 0.24 | Overcast with Haze | OVC075 | 13 | -4 | 31% | 76.5 | 0.0 | |||||||
| 02 | 12:15 | Vrbl 7 | 0.80 | Sky Obscured with Haze | VV005 | 13 | -6 | 26% | 76.53 | 0.0 | |||||||
| 02 | 11:55 | Calm | 0.80 | Sky Obscured with Haze | VV005 | 13 | -5 | 28% | 76.53 | 0.0 | |||||||
| 02 | 11:35 | Calm | 0.80 | Mostly Cloudy with Haze | BKN075 | 12 | -5 | 30% | 76.53 | 0.0 | |||||||
| 02 | 11:15 | NE 9 | 1.21 | Mostly Cloudy with Haze | BKN065 BKN075 | 11 | -5 | 32% | 76.56 | 0.0 | |||||||
| 02 | 10:55 | Vrbl 6 | 0.80 | Sky Obscured with Haze | VV005 | 11 | -4 | 35% | 76.56 | 0.0 | |||||||
| 02 | 10:35 | NE 11 | 0.40 | Sky Obscured with Haze | VV002 | 12 | -6 | 28% | 76.56 | 0.0 | |||||||
| 02 | 10:15 | Calm | 0.40 | Sky Obscured with Haze | VV002 | 11 | -4 | 35% | 76.56 | 0.0 | |||||||
| 02 | 09:55 | Calm | 0.40 | Sky Obscured with Haze | VV002 | 11 | -2 | 41% | 76.56 | 0.0 | |||||||
| 02 | 09:35 | Calm | 1.21 | Sky Obscured with Haze | VV005 | 10 | 3 | 62% | 76.56 | 0.0 | |||||||
| 02 | 09:15 | Calm | 0.80 | Sky Obscured with Haze | VV005 | 9 | 4 | 71% | 76.56 | 0.0 | |||||||
| 02 | 08:55 | Calm | 3.22 | Fog/Mist | CLR | 8 | 7 | 93% | 76.56 | 0.0 | |||||||
| 02 | 08:35 | Calm | 3.22 | Fog/Mist | CLR | 7 | 7 | 100% | 76.53 | 0.0 | |||||||
| 02 | 08:15 | E 7 | 4.83 | Fog/Mist | CLR | 6 | 6 | 100% | 5 | 76.53 | 0.0 | ||||||
| 02 | 07:55 | E 7 | 14.48 | Fair | CLR | 5 | 5 | 100% | 4 | 76.53 | 0.0 | 0.03 | |||||
| 02 | 07:35 | NE 9 | 14.48 | Fair | CLR | 5 | 5 | 100% | 3 | 76.53 | 0.0 | ||||||
| 02 | 07:15 | Calm | 6.44 | Fog/Mist | CLR | 4 | 4 | 100% | 76.5 | 0.0 | |||||||
| 02 | 06:55 | NE 7 | 14.48 | Fair | CLR | 2 | 2 | 100% | 0 | 76.48 | 0.0 | ||||||
| 02 | 06:35 | NE 9 | 0.80 | Fog | VV005 | 2 | 2 | 100% | -0 | 76.48 | 0.0 | ||||||
| 02 | 06:15 | NE 9 | 0.40 | Fog | VV002 | 2 | 2 | 100% | -0 | 76.48 | 0.0 | ||||||
| 02 | 05:55 | NE 6 | 3.22 | Fog/Mist | CLR | 2 | 2 | 100% | 76.45 | 0.0 | |||||||
| 02 | 05:35 | NE 7 | 1.21 | Fog/Mist | VV005 | 2 | 2 | 100% | 0 | 76.45 | 0.0 | ||||||
| 02 | 05:15 | NE 11 | 4.83 | Fog/Mist | CLR | 3 | 3 | 100% | 0 | 76.45 | 0.0 | ||||||
| 02 | 04:55 | NE 11 | 2.82 | Fog/Mist | BKN085 | 3 | 3 | 100% | 0 | 76.45 | 0.0 | ||||||
| 02 | 04:35 | NE 11 | 2.01 | Fog/Mist | OVC085 | 4 | 4 | 100% | 2 | 76.43 | 0.0 | ||||||
| 02 | 04:15 | NE 13 | 1.21 | Fog/Mist | OVC085 | 4 | 4 | 100% | 1 | 76.43 | 0.0 | ||||||
| 02 | 03:55 | NE 15 | 2.82 | Fog/Mist | BKN080 | 4 | 3 | 93% | 1 | 76.43 | 0.0 | ||||||
| 02 | 03:35 | NE 13 | 3.22 | Fog/Mist | FEW080 | 4 | 2 | 87% | 1 | 76.4 | 0.0 | ||||||
| 02 | 03:15 | N 13 | 1.21 | Mostly Cloudy with Haze | BKN085 | 5 | 2 | 81% | 2 | 76.4 | 0.0 | ||||||
| 02 | 02:55 | N 9 | 16.09 | Partly Cloudy | SCT085 | 5 | 2 | 81% | 3 | 76.38 | 0.0 | ||||||
| 02 | 02:35 | N 13 | 16.09 | Mostly Cloudy | BKN085 | 6 | 2 | 76% | 4 | 76.38 | 0.0 | ||||||
| 02 | 02:15 | N 11 | 4.83 | A Few Clouds with Haze | FEW085 | 6 | 3 | 81% | 4 | 76.38 | 0.0 | ||||||
| 02 | 01:55 | N 11 | 4.02 | Mostly Cloudy with Haze | BKN090 | 6 | 2 | 76% | 4 | 76.38 | 0.0 | ||||||
| 02 | 01:35 | N 7 | 3.22 | Overcast with Haze | OVC090 | 7 | 3 | 76% | 6 | 76.4 | 0.0 | ||||||
| 02 | 01:15 | N 6 | 2.82 | Fog/Mist | OVC090 | 7 | 5 | 87% | 76.4 | 0.0 | |||||||
| 02 | 00:55 | NW 6 | 4.02 | Overcast with Haze | OVC090 | 7 | 4 | 81% | 76.4 | 0.0 | |||||||
| 02 | 00:35 | NW 6 | 1.61 | Fog/Mist | OVC090 | 7 | 6 | 93% | 76.4 | 0.0 | |||||||
| 02 | 00:15 | NW 6 | 4.83 | Fog/Mist | FEW075 OVC090 | 7 | 6 | 93% | 76.4 | 0.0 | |||||||
| 01 | 23:55 | NW 9 | 2.41 | Fog/Mist | SCT050 BKN075 OVC090 | 6 | 6 | 100% | 4 | 76.4 | 0.0 | ||||||
| 01 | 23:35 | Calm | 16.09 | Overcast | FEW065 SCT075 OVC090 | 6 | 6 | 100% | 76.38 | 0.0 | |||||||
| 01 | 23:15 | Calm | 3.22 | Fog/Mist | SCT070 OVC090 | 6 | 6 | 100% | 76.38 | 0.0 | |||||||
| 01 | 22:55 | Calm | 2.41 | Fog/Mist | SCT070 OVC090 | 6 | 4 | 87% | 76.38 | 0.0 | |||||||
| 01 | 22:35 | Calm | 3.22 | Fog/Mist | BKN080 OVC090 | 6 | 4 | 87% | 76.38 | 0.0 | |||||||
| 01 | 22:15 | Calm | 2.82 | Partly Cloudy with Haze | SCT080 | 6 | 3 | 81% | 76.38 | 0.0 | |||||||
| 01 | 21:55 | Calm | 2.82 | Fair with Haze | CLR | 8 | 2 | 66% | 76.38 | 0.0 | |||||||
| 01 | 21:35 | N 7 | 0.80 | Sky Obscured with Haze | VV005 | 8 | 1 | 62% | 7 | 76.35 | 0.0 | ||||||
| 01 | 21:15 | N 7 | 1.21 | Sky Obscured with Haze | VV005 | 8 | 2 | 66% | 7 | 76.33 | 0.0 | ||||||
| Date | Time (cdt) | Wind (kph) | Vis. (km) | Weather | Sky Cond. | Air | Dwpt | Max. | Min. | Relative Humidity | Wind Chill (°C) | Heat Index (°C) | altimeter (cm) | sea level (mb) | 1 hr | 3 hr | 6 hr |
| 6 hour | |||||||||||||||||
| Temperature (ºC) | Pressure | Precipitation (cm) | |||||||||||||||